sensor_id;sensor_type;location;lat;lon;timestamp;P1;durP1;ratioP1;P2;durP2;ratioP2
53710;SDS011;39605;52.704;6.752;2024-03-22T00:01:57;51.15;;;42.38;;
53710;SDS011;39605;52.704;6.752;2024-03-22T00:04:23;56.70;;;42.55;;
53710;SDS011;39605;52.704;6.752;2024-03-22T00:06:49;53.00;;;42.53;;
53710;SDS011;39605;52.704;6.752;2024-03-22T00:09:19;54.05;;;43.38;;
53710;SDS011;39605;52.704;6.752;2024-03-22T00:11:45;56.08;;;42.47;;
53710;SDS011;39605;52.704;6.752;2024-03-22T00:14:11;51.80;;;43.35;;
53710;SDS011;39605;52.704;6.752;2024-03-22T00:16:37;56.83;;;45.83;;
53710;SDS011;39605;52.704;6.752;2024-03-22T00:19:04;52.58;;;42.67;;
53710;SDS011;39605;52.704;6.752;2024-03-22T00:21:30;56.42;;;44.13;;
53710;SDS011;39605;52.704;6.752;2024-03-22T00:23:56;55.97;;;44.65;;
53710;SDS011;39605;52.704;6.752;2024-03-22T00:26:22;57.85;;;43.70;;
53710;SDS011;39605;52.704;6.752;2024-03-22T00:28:48;55.20;;;42.65;;
53710;SDS011;39605;52.704;6.752;2024-03-22T00:31:14;56.22;;;46.05;;
53710;SDS011;39605;52.704;6.752;2024-03-22T00:33:41;58.00;;;45.30;;
53710;SDS011;39605;52.704;6.752;2024-03-22T00:36:07;56.50;;;44.30;;
53710;SDS011;39605;52.704;6.752;2024-03-22T00:38:33;58.67;;;46.45;;
53710;SDS011;39605;52.704;6.752;2024-03-22T00:41:00;61.78;;;46.63;;
53710;SDS011;39605;52.704;6.752;2024-03-22T00:43:26;60.80;;;46.90;;
53710;SDS011;39605;52.704;6.752;2024-03-22T00:45:52;61.17;;;46.47;;
53710;SDS011;39605;52.704;6.752;2024-03-22T00:48:18;60.75;;;46.80;;
53710;SDS011;39605;52.704;6.752;2024-03-22T00:50:44;59.50;;;46.67;;
53710;SDS011;39605;52.704;6.752;2024-03-22T00:53:10;60.70;;;46.08;;
53710;SDS011;39605;52.704;6.752;2024-03-22T00:55:37;65.35;;;48.38;;
53710;SDS011;39605;52.704;6.752;2024-03-22T00:58:03;60.90;;;48.47;;
53710;SDS011;39605;52.704;6.752;2024-03-22T01:00:29;62.00;;;47.83;;
53710;SDS011;39605;52.704;6.752;2024-03-22T01:02:56;64.63;;;49.42;;
53710;SDS011;39605;52.704;6.752;2024-03-22T01:05:22;61.75;;;47.70;;
53710;SDS011;39605;52.704;6.752;2024-03-22T01:07:48;70.18;;;49.85;;
53710;SDS011;39605;52.704;6.752;2024-03-22T01:10:14;62.67;;;48.33;;
53710;SDS011;39605;52.704;6.752;2024-03-22T01:12:40;67.47;;;50.78;;
53710;SDS011;39605;52.704;6.752;2024-03-22T01:15:07;66.93;;;49.10;;
53710;SDS011;39605;52.704;6.752;2024-03-22T01:17:34;64.47;;;49.58;;
53710;SDS011;39605;52.704;6.752;2024-03-22T01:20:00;65.75;;;49.30;;
53710;SDS011;39605;52.704;6.752;2024-03-22T01:22:26;64.25;;;49.28;;
53710;SDS011;39605;52.704;6.752;2024-03-22T01:24:52;68.10;;;49.78;;
53710;SDS011;39605;52.704;6.752;2024-03-22T01:27:18;67.28;;;48.92;;
53710;SDS011;39605;52.704;6.752;2024-03-22T01:29:46;67.30;;;50.08;;
53710;SDS011;39605;52.704;6.752;2024-03-22T01:32:12;68.55;;;50.75;;
53710;SDS011;39605;52.704;6.752;2024-03-22T01:34:38;64.70;;;50.97;;
53710;SDS011;39605;52.704;6.752;2024-03-22T01:37:04;68.93;;;50.65;;
53710;SDS011;39605;52.704;6.752;2024-03-22T01:39:30;66.97;;;51.33;;
53710;SDS011;39605;52.704;6.752;2024-03-22T01:41:56;66.18;;;49.72;;
53710;SDS011;39605;52.704;6.752;2024-03-22T01:44:27;66.53;;;51.17;;
53710;SDS011;39605;52.704;6.752;2024-03-22T01:46:53;70.18;;;49.78;;
53710;SDS011;39605;52.704;6.752;2024-03-22T01:49:19;68.70;;;53.17;;
53710;SDS011;39605;52.704;6.752;2024-03-22T01:51:45;71.55;;;51.33;;
53710;SDS011;39605;52.704;6.752;2024-03-22T01:54:11;66.80;;;50.00;;
53710;SDS011;39605;52.704;6.752;2024-03-22T01:56:37;71.20;;;51.65;;
53710;SDS011;39605;52.704;6.752;2024-03-22T01:59:07;70.10;;;50.85;;
53710;SDS011;39605;52.704;6.752;2024-03-22T02:01:33;70.10;;;52.42;;
53710;SDS011;39605;52.704;6.752;2024-03-22T02:03:59;71.63;;;51.38;;
53710;SDS011;39605;52.704;6.752;2024-03-22T02:06:25;67.88;;;50.53;;
53710;SDS011;39605;52.704;6.752;2024-03-22T02:08:51;74.70;;;52.92;;
53710;SDS011;39605;52.704;6.752;2024-03-22T02:11:18;75.85;;;52.50;;
53710;SDS011;39605;52.704;6.752;2024-03-22T02:13:44;72.13;;;52.17;;
53710;SDS011;39605;52.704;6.752;2024-03-22T02:16:10;76.30;;;53.60;;
53710;SDS011;39605;52.704;6.752;2024-03-22T02:18:36;75.80;;;52.00;;
53710;SDS011;39605;52.704;6.752;2024-03-22T02:21:03;74.55;;;51.80;;
53710;SDS011;39605;52.704;6.752;2024-03-22T02:23:39;71.45;;;49.45;;
53710;SDS011;39605;52.704;6.752;2024-03-22T02:26:05;74.38;;;52.05;;
53710;SDS011;39605;52.704;6.752;2024-03-22T02:28:31;73.75;;;52.13;;
53710;SDS011;39605;52.704;6.752;2024-03-22T02:30:58;76.72;;;54.28;;
53710;SDS011;39605;52.704;6.752;2024-03-22T02:33:24;76.60;;;52.88;;
53710;SDS011;39605;52.704;6.752;2024-03-22T02:35:50;69.75;;;50.17;;
53710;SDS011;39605;52.704;6.752;2024-03-22T02:38:17;74.22;;;51.17;;
53710;SDS011;39605;52.704;6.752;2024-03-22T02:40:44;74.68;;;52.70;;
53710;SDS011;39605;52.704;6.752;2024-03-22T02:43:10;76.47;;;52.20;;
53710;SDS011;39605;52.704;6.752;2024-03-22T02:45:36;70.97;;;52.58;;
53710;SDS011;39605;52.704;6.752;2024-03-22T02:48:02;72.80;;;51.67;;
53710;SDS011;39605;52.704;6.752;2024-03-22T02:50:32;74.90;;;52.92;;
53710;SDS011;39605;52.704;6.752;2024-03-22T02:52:58;73.45;;;52.10;;
53710;SDS011;39605;52.704;6.752;2024-03-22T02:55:24;74.75;;;52.45;;
53710;SDS011;39605;52.704;6.752;2024-03-22T02:57:50;75.53;;;51.38;;
53710;SDS011;39605;52.704;6.752;2024-03-22T03:00:17;70.35;;;50.97;;
53710;SDS011;39605;52.704;6.752;2024-03-22T03:02:43;76.57;;;52.00;;
53710;SDS011;39605;52.704;6.752;2024-03-22T03:05:09;77.15;;;54.00;;
53710;SDS011;39605;52.704;6.752;2024-03-22T03:07:35;73.47;;;52.40;;
53710;SDS011;39605;52.704;6.752;2024-03-22T03:10:01;76.60;;;53.25;;
53710;SDS011;39605;52.704;6.752;2024-03-22T03:12:28;70.78;;;52.13;;
53710;SDS011;39605;52.704;6.752;2024-03-22T03:14:54;73.35;;;53.17;;
53710;SDS011;39605;52.704;6.752;2024-03-22T03:17:20;77.45;;;53.40;;
53710;SDS011;39605;52.704;6.752;2024-03-22T03:19:46;71.90;;;51.40;;
53710;SDS011;39605;52.704;6.752;2024-03-22T03:22:12;72.65;;;52.05;;
53710;SDS011;39605;52.704;6.752;2024-03-22T03:24:38;70.18;;;51.05;;
53710;SDS011;39605;52.704;6.752;2024-03-22T03:27:04;72.07;;;51.30;;
53710;SDS011;39605;52.704;6.752;2024-03-22T03:29:30;77.70;;;52.95;;
53710;SDS011;39605;52.704;6.752;2024-03-22T03:31:56;76.82;;;51.92;;
53710;SDS011;39605;52.704;6.752;2024-03-22T03:34:22;71.53;;;52.47;;
53710;SDS011;39605;52.704;6.752;2024-03-22T03:36:48;74.68;;;51.83;;
53710;SDS011;39605;52.704;6.752;2024-03-22T03:39:14;70.28;;;50.53;;
53710;SDS011;39605;52.704;6.752;2024-03-22T03:41:40;73.65;;;52.00;;
53710;SDS011;39605;52.704;6.752;2024-03-22T03:44:06;74.60;;;52.33;;
53710;SDS011;39605;52.704;6.752;2024-03-22T03:46:33;74.15;;;52.97;;
53710;SDS011;39605;52.704;6.752;2024-03-22T03:48:59;79.90;;;54.65;;
53710;SDS011;39605;52.704;6.752;2024-03-22T03:51:25;73.05;;;50.65;;
53710;SDS011;39605;52.704;6.752;2024-03-22T03:53:51;74.70;;;51.97;;
53710;SDS011;39605;52.704;6.752;2024-03-22T03:56:17;75.43;;;52.42;;
53710;SDS011;39605;52.704;6.752;2024-03-22T03:58:45;79.53;;;54.08;;
53710;SDS011;39605;52.704;6.752;2024-03-22T04:01:11;76.88;;;53.90;;
53710;SDS011;39605;52.704;6.752;2024-03-22T04:03:37;78.68;;;53.38;;
53710;SDS011;39605;52.704;6.752;2024-03-22T04:06:03;77.63;;;53.78;;
53710;SDS011;39605;52.704;6.752;2024-03-22T04:08:29;74.22;;;53.15;;
53710;SDS011;39605;52.704;6.752;2024-03-22T04:10:56;73.82;;;52.80;;
53710;SDS011;39605;52.704;6.752;2024-03-22T04:13:25;73.93;;;54.03;;
53710;SDS011;39605;52.704;6.752;2024-03-22T04:15:52;75.75;;;53.42;;
53710;SDS011;39605;52.704;6.752;2024-03-22T04:18:18;76.18;;;53.50;;
53710;SDS011;39605;52.704;6.752;2024-03-22T04:20:53;81.45;;;55.97;;
53710;SDS011;39605;52.704;6.752;2024-03-22T04:23:19;79.05;;;55.15;;
53710;SDS011;39605;52.704;6.752;2024-03-22T04:25:58;76.85;;;53.03;;
53710;SDS011;39605;52.704;6.752;2024-03-22T04:28:28;73.15;;;51.78;;
53710;SDS011;39605;52.704;6.752;2024-03-22T04:33:20;78.72;;;54.13;;
53710;SDS011;39605;52.704;6.752;2024-03-22T04:35:47;79.65;;;56.40;;
53710;SDS011;39605;52.704;6.752;2024-03-22T04:38:13;79.15;;;56.28;;
53710;SDS011;39605;52.704;6.752;2024-03-22T04:40:39;84.72;;;58.88;;
53710;SDS011;39605;52.704;6.752;2024-03-22T04:43:05;75.07;;;54.80;;
53710;SDS011;39605;52.704;6.752;2024-03-22T04:45:31;76.95;;;55.72;;
53710;SDS011;39605;52.704;6.752;2024-03-22T04:47:57;74.88;;;54.40;;
53710;SDS011;39605;52.704;6.752;2024-03-22T04:50:23;79.03;;;57.17;;
53710;SDS011;39605;52.704;6.752;2024-03-22T04:52:49;76.20;;;55.25;;
53710;SDS011;39605;52.704;6.752;2024-03-22T04:55:15;79.82;;;57.03;;
53710;SDS011;39605;52.704;6.752;2024-03-22T04:57:41;78.53;;;56.42;;
53710;SDS011;39605;52.704;6.752;2024-03-22T05:00:07;78.22;;;57.88;;
53710;SDS011;39605;52.704;6.752;2024-03-22T05:02:34;80.00;;;57.42;;
53710;SDS011;39605;52.704;6.752;2024-03-22T05:05:00;77.88;;;56.65;;
53710;SDS011;39605;52.704;6.752;2024-03-22T05:07:26;76.78;;;56.50;;
53710;SDS011;39605;52.704;6.752;2024-03-22T05:09:52;80.22;;;55.95;;
53710;SDS011;39605;52.704;6.752;2024-03-22T05:12:18;78.28;;;55.92;;
53710;SDS011;39605;52.704;6.752;2024-03-22T05:14:44;82.30;;;57.25;;
53710;SDS011;39605;52.704;6.752;2024-03-22T05:17:10;75.65;;;55.88;;
53710;SDS011;39605;52.704;6.752;2024-03-22T05:19:36;76.65;;;55.65;;
53710;SDS011;39605;52.704;6.752;2024-03-22T05:22:02;75.63;;;54.75;;
53710;SDS011;39605;52.704;6.752;2024-03-22T05:24:28;81.75;;;58.13;;
53710;SDS011;39605;52.704;6.752;2024-03-22T05:26:54;79.45;;;57.35;;
53710;SDS011;39605;52.704;6.752;2024-03-22T05:29:20;83.35;;;58.33;;
53710;SDS011;39605;52.704;6.752;2024-03-22T05:31:47;79.93;;;57.13;;
53710;SDS011;39605;52.704;6.752;2024-03-22T05:34:14;75.90;;;56.70;;
53710;SDS011;39605;52.704;6.752;2024-03-22T05:36:41;79.15;;;56.72;;
53710;SDS011;39605;52.704;6.752;2024-03-22T05:39:07;75.43;;;56.97;;
53710;SDS011;39605;52.704;6.752;2024-03-22T05:41:33;79.45;;;55.80;;
53710;SDS011;39605;52.704;6.752;2024-03-22T05:43:59;80.05;;;56.88;;
53710;SDS011;39605;52.704;6.752;2024-03-22T05:46:25;77.47;;;56.58;;
53710;SDS011;39605;52.704;6.752;2024-03-22T05:48:51;76.13;;;56.33;;
53710;SDS011;39605;52.704;6.752;2024-03-22T05:51:17;74.88;;;53.42;;
53710;SDS011;39605;52.704;6.752;2024-03-22T05:53:44;77.15;;;56.70;;
53710;SDS011;39605;52.704;6.752;2024-03-22T05:56:10;76.03;;;55.85;;
53710;SDS011;39605;52.704;6.752;2024-03-22T05:58:36;83.30;;;59.38;;
53710;SDS011;39605;52.704;6.752;2024-03-22T06:01:02;80.15;;;58.03;;
53710;SDS011;39605;52.704;6.752;2024-03-22T06:03:29;84.60;;;59.30;;
53710;SDS011;39605;52.704;6.752;2024-03-22T06:05:55;85.50;;;60.17;;
53710;SDS011;39605;52.704;6.752;2024-03-22T06:08:24;86.80;;;61.95;;
53710;SDS011;39605;52.704;6.752;2024-03-22T06:10:52;85.18;;;61.83;;
53710;SDS011;39605;52.704;6.752;2024-03-22T06:13:18;82.55;;;59.00;;
53710;SDS011;39605;52.704;6.752;2024-03-22T06:15:44;83.65;;;60.05;;
53710;SDS011;39605;52.704;6.752;2024-03-22T06:18:11;84.15;;;61.70;;
53710;SDS011;39605;52.704;6.752;2024-03-22T06:20:37;85.60;;;61.70;;
53710;SDS011;39605;52.704;6.752;2024-03-22T06:23:03;88.07;;;61.40;;
53710;SDS011;39605;52.704;6.752;2024-03-22T06:25:29;85.95;;;59.78;;
53710;SDS011;39605;52.704;6.752;2024-03-22T06:27:55;82.82;;;57.80;;
53710;SDS011;39605;52.704;6.752;2024-03-22T06:30:21;85.25;;;58.20;;
53710;SDS011;39605;52.704;6.752;2024-03-22T06:32:47;82.05;;;57.53;;
53710;SDS011;39605;52.704;6.752;2024-03-22T06:35:14;85.28;;;57.75;;
53710;SDS011;39605;52.704;6.752;2024-03-22T06:37:40;87.57;;;57.42;;
53710;SDS011;39605;52.704;6.752;2024-03-22T06:40:09;77.97;;;54.42;;
53710;SDS011;39605;52.704;6.752;2024-03-22T06:42:35;77.10;;;54.35;;
53710;SDS011;39605;52.704;6.752;2024-03-22T06:45:02;74.72;;;52.75;;
53710;SDS011;39605;52.704;6.752;2024-03-22T06:47:28;75.68;;;54.67;;
53710;SDS011;39605;52.704;6.752;2024-03-22T06:49:54;72.57;;;53.83;;
53710;SDS011;39605;52.704;6.752;2024-03-22T06:52:20;73.40;;;52.05;;
53710;SDS011;39605;52.704;6.752;2024-03-22T06:54:46;75.72;;;53.25;;
53710;SDS011;39605;52.704;6.752;2024-03-22T06:57:13;70.65;;;49.95;;
53710;SDS011;39605;52.704;6.752;2024-03-22T06:59:39;69.90;;;50.63;;
53710;SDS011;39605;52.704;6.752;2024-03-22T07:02:05;74.03;;;50.58;;
53710;SDS011;39605;52.704;6.752;2024-03-22T07:04:31;71.68;;;49.13;;
53710;SDS011;39605;52.704;6.752;2024-03-22T07:06:57;71.80;;;48.38;;
53710;SDS011;39605;52.704;6.752;2024-03-22T07:09:23;65.75;;;46.25;;
53710;SDS011;39605;52.704;6.752;2024-03-22T07:11:49;71.15;;;47.85;;
53710;SDS011;39605;52.704;6.752;2024-03-22T07:14:16;62.95;;;46.28;;
53710;SDS011;39605;52.704;6.752;2024-03-22T07:16:42;61.95;;;45.13;;
53710;SDS011;39605;52.704;6.752;2024-03-22T07:19:08;60.88;;;43.83;;
53710;SDS011;39605;52.704;6.752;2024-03-22T07:21:34;67.93;;;44.03;;
53710;SDS011;39605;52.704;6.752;2024-03-22T07:24:00;62.55;;;42.78;;
53710;SDS011;39605;52.704;6.752;2024-03-22T07:26:26;62.17;;;43.58;;
53710;SDS011;39605;52.704;6.752;2024-03-22T07:28:52;56.30;;;40.88;;
53710;SDS011;39605;52.704;6.752;2024-03-22T07:31:18;57.42;;;40.17;;
53710;SDS011;39605;52.704;6.752;2024-03-22T07:33:45;54.33;;;41.83;;
53710;SDS011;39605;52.704;6.752;2024-03-22T07:36:11;57.30;;;38.83;;
53710;SDS011;39605;52.704;6.752;2024-03-22T07:38:37;52.58;;;38.45;;
53710;SDS011;39605;52.704;6.752;2024-03-22T07:41:03;52.72;;;35.85;;
53710;SDS011;39605;52.704;6.752;2024-03-22T07:43:29;55.20;;;36.80;;
53710;SDS011;39605;52.704;6.752;2024-03-22T07:45:55;51.42;;;36.65;;
53710;SDS011;39605;52.704;6.752;2024-03-22T07:48:21;48.65;;;34.97;;
53710;SDS011;39605;52.704;6.752;2024-03-22T07:50:55;52.47;;;36.17;;
53710;SDS011;39605;52.704;6.752;2024-03-22T07:53:21;49.38;;;34.28;;
53710;SDS011;39605;52.704;6.752;2024-03-22T07:55:47;48.42;;;33.72;;
53710;SDS011;39605;52.704;6.752;2024-03-22T07:58:13;47.42;;;34.22;;
53710;SDS011;39605;52.704;6.752;2024-03-22T08:00:39;45.65;;;32.30;;
53710;SDS011;39605;52.704;6.752;2024-03-22T08:03:05;44.67;;;32.58;;
53710;SDS011;39605;52.704;6.752;2024-03-22T08:05:32;48.67;;;33.65;;
53710;SDS011;39605;52.704;6.752;2024-03-22T08:07:58;49.85;;;32.33;;
53710;SDS011;39605;52.704;6.752;2024-03-22T08:10:24;42.95;;;32.25;;
53710;SDS011;39605;52.704;6.752;2024-03-22T08:12:50;45.70;;;32.17;;
53710;SDS011;39605;52.704;6.752;2024-03-22T08:15:17;52.75;;;31.48;;
53710;SDS011;39605;52.704;6.752;2024-03-22T08:17:43;43.85;;;28.08;;
53710;SDS011;39605;52.704;6.752;2024-03-22T08:20:09;43.28;;;30.30;;
53710;SDS011;39605;52.704;6.752;2024-03-22T08:22:35;43.88;;;29.83;;
53710;SDS011;39605;52.704;6.752;2024-03-22T08:25:01;48.70;;;30.42;;
53710;SDS011;39605;52.704;6.752;2024-03-22T08:27:29;40.95;;;28.45;;
53710;SDS011;39605;52.704;6.752;2024-03-22T08:29:55;43.13;;;28.05;;
53710;SDS011;39605;52.704;6.752;2024-03-22T08:32:21;36.55;;;25.70;;
53710;SDS011;39605;52.704;6.752;2024-03-22T08:34:47;41.28;;;26.42;;
53710;SDS011;39605;52.704;6.752;2024-03-22T08:37:13;41.85;;;25.67;;
53710;SDS011;39605;52.704;6.752;2024-03-22T08:39:39;38.65;;;25.08;;
53710;SDS011;39605;52.704;6.752;2024-03-22T08:42:06;40.22;;;25.63;;
53710;SDS011;39605;52.704;6.752;2024-03-22T08:44:32;36.10;;;24.13;;
53710;SDS011;39605;52.704;6.752;2024-03-22T08:46:58;37.65;;;23.23;;
53710;SDS011;39605;52.704;6.752;2024-03-22T08:49:24;37.53;;;23.90;;
53710;SDS011;39605;52.704;6.752;2024-03-22T08:51:50;38.50;;;23.52;;
53710;SDS011;39605;52.704;6.752;2024-03-22T08:54:16;35.20;;;22.75;;
53710;SDS011;39605;52.704;6.752;2024-03-22T08:56:42;30.52;;;22.10;;
53710;SDS011;39605;52.704;6.752;2024-03-22T08:59:08;36.75;;;22.10;;
53710;SDS011;39605;52.704;6.752;2024-03-22T09:01:35;32.05;;;22.67;;
53710;SDS011;39605;52.704;6.752;2024-03-22T09:04:01;37.10;;;23.25;;
53710;SDS011;39605;52.704;6.752;2024-03-22T09:06:27;29.60;;;20.08;;
53710;SDS011;39605;52.704;6.752;2024-03-22T09:08:54;32.78;;;21.08;;
53710;SDS011;39605;52.704;6.752;2024-03-22T09:11:23;36.03;;;20.25;;
53710;SDS011;39605;52.704;6.752;2024-03-22T09:13:51;41.28;;;23.17;;
53710;SDS011;39605;52.704;6.752;2024-03-22T09:16:17;41.35;;;24.33;;
53710;SDS011;39605;52.704;6.752;2024-03-22T09:18:43;40.95;;;23.95;;
53710;SDS011;39605;52.704;6.752;2024-03-22T09:21:09;38.88;;;24.40;;
53710;SDS011;39605;52.704;6.752;2024-03-22T09:23:35;35.40;;;23.85;;
53710;SDS011;39605;52.704;6.752;2024-03-22T09:26:01;36.97;;;23.33;;
53710;SDS011;39605;52.704;6.752;2024-03-22T09:28:27;40.15;;;23.90;;
53710;SDS011;39605;52.704;6.752;2024-03-22T09:30:53;39.38;;;23.95;;
53710;SDS011;39605;52.704;6.752;2024-03-22T09:33:20;34.17;;;23.17;;
53710;SDS011;39605;52.704;6.752;2024-03-22T09:35:46;34.08;;;23.05;;
53710;SDS011;39605;52.704;6.752;2024-03-22T09:38:12;39.85;;;22.60;;
53710;SDS011;39605;52.704;6.752;2024-03-22T09:40:38;40.53;;;24.08;;
53710;SDS011;39605;52.704;6.752;2024-03-22T09:43:07;35.97;;;23.90;;
53710;SDS011;39605;52.704;6.752;2024-03-22T09:45:33;36.50;;;22.55;;
53710;SDS011;39605;52.704;6.752;2024-03-22T09:47:59;34.70;;;22.15;;
53710;SDS011;39605;52.704;6.752;2024-03-22T09:50:26;30.83;;;21.75;;
53710;SDS011;39605;52.704;6.752;2024-03-22T09:52:52;28.83;;;21.27;;
53710;SDS011;39605;52.704;6.752;2024-03-22T09:55:21;36.67;;;23.40;;
53710;SDS011;39605;52.704;6.752;2024-03-22T09:57:48;35.45;;;23.20;;
53710;SDS011;39605;52.704;6.752;2024-03-22T10:00:16;36.13;;;21.92;;
53710;SDS011;39605;52.704;6.752;2024-03-22T10:02:43;30.73;;;22.15;;
53710;SDS011;39605;52.704;6.752;2024-03-22T10:05:10;31.58;;;20.38;;
53710;SDS011;39605;52.704;6.752;2024-03-22T10:07:36;32.85;;;22.30;;
53710;SDS011;39605;52.704;6.752;2024-03-22T10:10:02;28.77;;;20.33;;
53710;SDS011;39605;52.704;6.752;2024-03-22T10:12:29;29.92;;;21.60;;
53710;SDS011;39605;52.704;6.752;2024-03-22T10:14:55;27.65;;;20.35;;
53710;SDS011;39605;52.704;6.752;2024-03-22T10:17:21;28.95;;;20.33;;
53710;SDS011;39605;52.704;6.752;2024-03-22T10:19:50;26.30;;;18.95;;
53710;SDS011;39605;52.704;6.752;2024-03-22T10:22:16;23.48;;;18.80;;
53710;SDS011;39605;52.704;6.752;2024-03-22T10:24:42;31.02;;;19.95;;
53710;SDS011;39605;52.704;6.752;2024-03-22T10:27:09;29.00;;;20.13;;
53710;SDS011;39605;52.704;6.752;2024-03-22T10:29:35;25.40;;;19.40;;
53710;SDS011;39605;52.704;6.752;2024-03-22T10:32:01;21.70;;;16.83;;
53710;SDS011;39605;52.704;6.752;2024-03-22T10:34:28;23.25;;;16.13;;
53710;SDS011;39605;52.704;6.752;2024-03-22T10:36:57;20.45;;;16.30;;
53710;SDS011;39605;52.704;6.752;2024-03-22T10:39:25;20.10;;;16.95;;
53710;SDS011;39605;52.704;6.752;2024-03-22T10:41:52;19.80;;;16.25;;
53710;SDS011;39605;52.704;6.752;2024-03-22T10:44:18;17.83;;;15.32;;
53710;SDS011;39605;52.704;6.752;2024-03-22T10:46:44;17.30;;;15.50;;
53710;SDS011;39605;52.704;6.752;2024-03-22T10:49:15;15.75;;;13.75;;
53710;SDS011;39605;52.704;6.752;2024-03-22T10:51:42;17.38;;;15.57;;
53710;SDS011;39605;52.704;6.752;2024-03-22T10:54:10;16.13;;;14.43;;
53710;SDS011;39605;52.704;6.752;2024-03-22T10:56:37;15.18;;;13.68;;
53710;SDS011;39605;52.704;6.752;2024-03-22T10:59:03;17.38;;;14.27;;
53710;SDS011;39605;52.704;6.752;2024-03-22T11:01:29;15.65;;;13.52;;
53710;SDS011;39605;52.704;6.752;2024-03-22T11:04:05;16.65;;;14.45;;
53710;SDS011;39605;52.704;6.752;2024-03-22T11:06:37;14.68;;;12.93;;
53710;SDS011;39605;52.704;6.752;2024-03-22T11:09:03;14.48;;;12.90;;
53710;SDS011;39605;52.704;6.752;2024-03-22T11:11:29;15.00;;;13.52;;
53710;SDS011;39605;52.704;6.752;2024-03-22T11:14:02;15.27;;;13.68;;
53710;SDS011;39605;52.704;6.752;2024-03-22T11:16:28;14.73;;;13.23;;
53710;SDS011;39605;52.704;6.752;2024-03-22T11:18:55;14.57;;;12.90;;
53710;SDS011;39605;52.704;6.752;2024-03-22T11:21:21;15.27;;;13.32;;
53710;SDS011;39605;52.704;6.752;2024-03-22T11:23:48;13.65;;;12.35;;
53710;SDS011;39605;52.704;6.752;2024-03-22T11:26:14;12.82;;;11.63;;
53710;SDS011;39605;52.704;6.752;2024-03-22T11:28:40;12.70;;;11.43;;
53710;SDS011;39605;52.704;6.752;2024-03-22T11:31:07;13.30;;;11.73;;
53710;SDS011;39605;52.704;6.752;2024-03-22T11:33:39;12.65;;;11.40;;
53710;SDS011;39605;52.704;6.752;2024-03-22T11:36:06;12.95;;;11.65;;
53710;SDS011;39605;52.704;6.752;2024-03-22T11:38:32;11.80;;;10.65;;
53710;SDS011;39605;52.704;6.752;2024-03-22T11:40:58;11.75;;;10.68;;
53710;SDS011;39605;52.704;6.752;2024-03-22T11:43:27;10.43;;;9.52;;
53710;SDS011;39605;52.704;6.752;2024-03-22T11:45:54;11.15;;;10.15;;
53710;SDS011;39605;52.704;6.752;2024-03-22T11:48:20;11.25;;;10.15;;
53710;SDS011;39605;52.704;6.752;2024-03-22T11:50:46;10.90;;;9.80;;
53710;SDS011;39605;52.704;6.752;2024-03-22T11:53:12;11.45;;;10.45;;
53710;SDS011;39605;52.704;6.752;2024-03-22T11:55:38;10.82;;;9.80;;
53710;SDS011;39605;52.704;6.752;2024-03-22T11:58:04;12.10;;;10.55;;
53710;SDS011;39605;52.704;6.752;2024-03-22T12:00:31;10.85;;;9.77;;
53710;SDS011;39605;52.704;6.752;2024-03-22T12:02:57;11.00;;;9.90;;
53710;SDS011;39605;52.704;6.752;2024-03-22T12:05:23;11.13;;;9.65;;
53710;SDS011;39605;52.704;6.752;2024-03-22T12:07:51;9.07;;;8.27;;
53710;SDS011;39605;52.704;6.752;2024-03-22T12:10:17;9.82;;;8.93;;
53710;SDS011;39605;52.704;6.752;2024-03-22T12:12:43;10.48;;;9.35;;
53710;SDS011;39605;52.704;6.752;2024-03-22T12:15:09;10.18;;;9.18;;
53710;SDS011;39605;52.704;6.752;2024-03-22T12:17:36;8.93;;;7.90;;
53710;SDS011;39605;52.704;6.752;2024-03-22T12:20:04;8.30;;;7.60;;
53710;SDS011;39605;52.704;6.752;2024-03-22T12:22:30;8.60;;;7.90;;
53710;SDS011;39605;52.704;6.752;2024-03-22T12:24:56;8.00;;;7.25;;
53710;SDS011;39605;52.704;6.752;2024-03-22T12:27:24;8.45;;;7.65;;
53710;SDS011;39605;52.704;6.752;2024-03-22T12:29:50;6.65;;;6.15;;
53710;SDS011;39605;52.704;6.752;2024-03-22T12:32:16;7.45;;;6.75;;
53710;SDS011;39605;52.704;6.752;2024-03-22T12:34:42;7.72;;;7.10;;
53710;SDS011;39605;52.704;6.752;2024-03-22T12:37:09;6.85;;;6.35;;
53710;SDS011;39605;52.704;6.752;2024-03-22T12:39:35;6.97;;;6.43;;
53710;SDS011;39605;52.704;6.752;2024-03-22T12:42:02;7.35;;;6.85;;
53710;SDS011;39605;52.704;6.752;2024-03-22T12:44:28;6.90;;;6.28;;
53710;SDS011;39605;52.704;6.752;2024-03-22T12:46:54;6.70;;;6.18;;
53710;SDS011;39605;52.704;6.752;2024-03-22T12:49:21;6.28;;;5.88;;
53710;SDS011;39605;52.704;6.752;2024-03-22T12:51:47;5.80;;;5.13;;
53710;SDS011;39605;52.704;6.752;2024-03-22T12:54:13;5.13;;;4.82;;
53710;SDS011;39605;52.704;6.752;2024-03-22T12:56:40;5.03;;;4.72;;
53710;SDS011;39605;52.704;6.752;2024-03-22T12:59:06;5.20;;;4.90;;
53710;SDS011;39605;52.704;6.752;2024-03-22T13:01:32;5.28;;;4.88;;
53710;SDS011;39605;52.704;6.752;2024-03-22T13:03:59;4.55;;;4.35;;
53710;SDS011;39605;52.704;6.752;2024-03-22T13:06:25;4.90;;;4.60;;
53710;SDS011;39605;52.704;6.752;2024-03-22T13:08:51;4.15;;;3.85;;
53710;SDS011;39605;52.704;6.752;2024-03-22T13:11:17;3.80;;;3.50;;
53710;SDS011;39605;52.704;6.752;2024-03-22T13:13:43;3.75;;;3.50;;
53710;SDS011;39605;52.704;6.752;2024-03-22T13:16:09;3.33;;;3.13;;
53710;SDS011;39605;52.704;6.752;2024-03-22T13:18:39;2.50;;;2.35;;
53710;SDS011;39605;52.704;6.752;2024-03-22T13:21:05;1.45;;;1.35;;
53710;SDS011;39605;52.704;6.752;2024-03-22T13:23:31;1.52;;;1.42;;
53710;SDS011;39605;52.704;6.752;2024-03-22T13:26:02;3.15;;;1.27;;
53710;SDS011;39605;52.704;6.752;2024-03-22T13:28:28;1.92;;;1.10;;
53710;SDS011;39605;52.704;6.752;2024-03-22T13:31:03;2.40;;;0.75;;
53710;SDS011;39605;52.704;6.752;2024-03-22T13:33:34;3.58;;;0.77;;
53710;SDS011;39605;52.704;6.752;2024-03-22T13:36:00;2.75;;;1.10;;
53710;SDS011;39605;52.704;6.752;2024-03-22T13:38:27;3.60;;;1.02;;
53710;SDS011;39605;52.704;6.752;2024-03-22T13:40:57;4.32;;;1.25;;
53710;SDS011;39605;52.704;6.752;2024-03-22T13:43:25;5.13;;;1.40;;
53710;SDS011;39605;52.704;6.752;2024-03-22T13:45:52;6.78;;;1.50;;
53710;SDS011;39605;52.704;6.752;2024-03-22T13:48:35;6.50;;;1.50;;
53710;SDS011;39605;52.704;6.752;2024-03-22T13:51:01;6.47;;;1.90;;
53710;SDS011;39605;52.704;6.752;2024-03-22T13:53:28;6.50;;;1.88;;
53710;SDS011;39605;52.704;6.752;2024-03-22T13:55:54;11.43;;;2.85;;
53710;SDS011;39605;52.704;6.752;2024-03-22T13:58:20;8.65;;;2.63;;
53710;SDS011;39605;52.704;6.752;2024-03-22T14:00:47;12.50;;;2.63;;
53710;SDS011;39605;52.704;6.752;2024-03-22T14:03:13;6.88;;;2.72;;
53710;SDS011;39605;52.704;6.752;2024-03-22T14:05:39;12.18;;;3.40;;
53710;SDS011;39605;52.704;6.752;2024-03-22T14:08:05;8.57;;;3.22;;
53710;SDS011;39605;52.704;6.752;2024-03-22T14:10:31;7.70;;;2.97;;
53710;SDS011;39605;52.704;6.752;2024-03-22T14:12:57;13.15;;;4.57;;
53710;SDS011;39605;52.704;6.752;2024-03-22T14:15:24;12.73;;;4.38;;
53710;SDS011;39605;52.704;6.752;2024-03-22T14:17:51;9.32;;;4.55;;
53710;SDS011;39605;52.704;6.752;2024-03-22T14:20:17;12.85;;;4.80;;
53710;SDS011;39605;52.704;6.752;2024-03-22T14:22:43;13.05;;;4.88;;
53710;SDS011;39605;52.704;6.752;2024-03-22T14:25:10;12.98;;;5.13;;